createdAt,value
2023-02-17T00:00:15.740Z,61.91
2023-02-17T00:01:37.681Z,59.60
2023-02-17T00:02:40.133Z,57.54
2023-02-17T00:03:42.822Z,56.26
2023-02-17T00:04:44.682Z,56.45
2023-02-17T00:05:47.908Z,57.29
2023-02-17T00:06:50.898Z,58.36
2023-02-17T00:07:53.004Z,59.38
2023-02-17T00:08:55.764Z,60.37
2023-02-17T00:09:58.636Z,61.30
2023-02-17T00:11:00.698Z,62.13
2023-02-17T00:12:02.465Z,63.04
2023-02-17T00:13:04.253Z,63.83
2023-02-17T00:14:06.579Z,63.24
2023-02-17T00:15:08.769Z,61.76
2023-02-17T00:16:18.087Z,59.93
2023-02-17T00:17:19.825Z,57.71
2023-02-17T00:18:22.123Z,56.39
2023-02-17T00:19:25.081Z,56.49
2023-02-17T00:20:29.497Z,57.32
2023-02-17T00:21:32.300Z,58.39
2023-02-17T00:22:34.060Z,59.41
2023-02-17T00:23:35.823Z,60.35
2023-02-17T00:24:39.969Z,61.22
2023-02-17T00:25:41.764Z,62.05
2023-02-17T00:26:43.669Z,62.92
2023-02-17T00:27:46.024Z,63.72
2023-02-17T00:28:48.725Z,63.21
2023-02-17T00:29:50.654Z,61.73
2023-02-17T00:30:52.490Z,59.97
2023-02-17T00:31:55.471Z,57.91
2023-02-17T00:32:59.545Z,56.33
2023-02-17T00:34:01.370Z,56.36
2023-02-17T00:35:03.512Z,57.13
2023-02-17T00:36:08.094Z,58.12
2023-02-17T00:37:10.901Z,59.18
2023-02-17T00:38:12.612Z,60.13
2023-02-17T00:39:16.998Z,61.00
2023-02-17T00:40:18.905Z,61.85
2023-02-17T00:41:21.937Z,62.61
2023-02-17T00:42:24.597Z,63.56
2023-02-17T00:43:26.520Z,63.51
2023-02-17T00:44:28.794Z,62.28
2023-02-17T00:45:30.645Z,60.54
2023-02-17T00:46:32.465Z,58.70
2023-02-17T00:47:34.767Z,56.72
2023-02-17T00:48:36.833Z,56.16
2023-02-17T00:49:39.784Z,56.72
2023-02-17T00:50:41.685Z,57.67
2023-02-17T00:51:44.636Z,58.68
2023-02-17T00:52:46.365Z,59.66
2023-02-17T00:53:48.307Z,60.53
2023-02-17T00:54:50.270Z,61.37
2023-02-17T00:55:52.013Z,62.15
2023-02-17T00:56:54.147Z,62.97
2023-02-17T00:57:55.995Z,63.75
2023-02-17T00:58:57.849Z,63.19
2023-02-17T00:59:59.641Z,61.65
2023-02-17T01:01:02.399Z,59.91
2023-02-17T01:02:04.268Z,57.85
2023-02-17T01:03:06.453Z,56.24
2023-02-17T01:04:08.347Z,56.17
2023-02-17T01:05:10.154Z,56.93
2023-02-17T01:06:24.439Z,57.95
2023-02-17T01:07:26.152Z,59.13
2023-02-17T01:08:27.916Z,60.09
2023-02-17T01:09:29.658Z,60.98
2023-02-17T01:10:31.468Z,61.80
2023-02-17T01:11:35.811Z,62.56
2023-02-17T01:12:39.120Z,63.59
2023-02-17T01:13:40.869Z,63.49
2023-02-17T01:14:42.631Z,62.24
2023-02-17T01:15:50.795Z,60.59
2023-02-17T01:16:52.596Z,58.65
2023-02-17T01:17:55.840Z,56.84
2023-02-17T01:18:58.062Z,56.42
2023-02-17T01:19:59.842Z,57.03
2023-02-17T01:21:01.624Z,57.98
2023-02-17T01:22:03.414Z,58.98
2023-02-17T01:23:05.839Z,59.95
2023-02-17T01:24:09.149Z,60.85
2023-02-17T01:25:10.970Z,61.72
2023-02-17T01:26:19.681Z,62.52
2023-02-17T01:27:21.467Z,63.61
2023-02-17T01:28:23.462Z,63.50
2023-02-17T01:29:25.566Z,62.23
2023-02-17T01:30:27.373Z,60.57
2023-02-17T01:31:29.274Z,58.85
2023-02-17T01:32:31.126Z,56.94
2023-02-17T01:33:32.864Z,56.33
2023-02-17T01:34:34.776Z,56.82
2023-02-17T01:35:36.543Z,57.81
2023-02-17T01:36:38.643Z,58.83
2023-02-17T01:37:40.629Z,59.86
2023-02-17T01:38:42.608Z,60.82
2023-02-17T01:39:44.881Z,61.72
2023-02-17T01:40:48.160Z,62.55
2023-02-17T01:41:50.140Z,63.59
2023-02-17T01:42:51.945Z,63.74
2023-02-17T01:44:14.700Z,62.73
2023-02-17T01:45:19.486Z,60.55
2023-02-17T01:46:21.314Z,58.80
2023-02-17T01:47:23.093Z,56.97
2023-02-17T01:48:37.378Z,56.50
2023-02-17T01:49:41.610Z,57.26
2023-02-17T01:50:50.536Z,58.32
2023-02-17T01:52:07.492Z,59.48
2023-02-17T01:53:13.656Z,60.70
2023-02-17T01:54:34.343Z,61.66
2023-02-17T01:55:39.129Z,62.88
2023-02-17T01:56:45.227Z,63.87
2023-02-17T01:57:51.740Z,63.34
2023-02-17T01:59:01.412Z,61.68
2023-02-17T02:00:08.261Z,59.62
2023-02-17T02:01:14.060Z,57.21
2023-02-17T02:02:16.562Z,56.12
2023-02-17T02:03:19.595Z,56.45
2023-02-17T02:04:26.377Z,57.39
2023-02-17T02:05:28.914Z,58.55
2023-02-17T02:06:34.002Z,59.58
2023-02-17T02:07:41.405Z,60.58
2023-02-17T02:09:05.674Z,61.60
2023-02-17T02:10:09.006Z,62.78
2023-02-17T02:11:10.827Z,63.70
2023-02-17T02:12:22.788Z,63.48
2023-02-17T02:13:24.865Z,61.77
2023-02-17T02:14:29.390Z,60.03
2023-02-17T02:15:50.912Z,58.14
2023-02-17T02:17:31.950Z,56.52
2023-02-17T02:18:46.145Z,57.34
2023-02-17T02:20:22.798Z,58.55
2023-02-17T02:21:54.080Z,60.18
2023-02-17T02:23:23.514Z,61.57
2023-02-17T02:24:46.787Z,62.84
2023-02-17T02:26:16.148Z,63.84
2023-02-17T02:27:50.819Z,62.45
2023-02-17T02:29:14.108Z,59.77
2023-02-17T02:30:45.357Z,56.92
2023-02-17T02:32:08.977Z,56.18
2023-02-17T02:33:43.325Z,57.32
2023-02-17T02:35:00.012Z,58.91
2023-02-17T02:36:27.359Z,60.18
2023-02-17T02:37:39.658Z,61.51
2023-02-17T02:38:43.409Z,62.40
2023-02-17T02:39:51.068Z,63.41
2023-02-17T02:41:08.423Z,63.67
2023-02-17T02:42:19.936Z,62.02
2023-02-17T02:43:23.730Z,59.95
2023-02-17T02:44:25.900Z,57.85
2023-02-17T02:45:28.049Z,56.26
2023-02-17T02:46:29.821Z,56.21
2023-02-17T02:47:54.893Z,56.98
2023-02-17T02:49:00.412Z,58.44
2023-02-17T02:50:03.187Z,59.50
2023-02-17T02:51:23.234Z,60.54
2023-02-17T02:52:49.115Z,61.70
2023-02-17T02:54:06.695Z,62.92
2023-02-17T02:55:39.855Z,63.88
2023-02-17T02:57:27.898Z,62.37
2023-02-17T02:59:01.483Z,59.23
2023-02-17T03:00:26.576Z,56.46
2023-02-17T03:01:48.671Z,56.53
2023-02-17T03:03:08.993Z,57.80
2023-02-17T03:04:19.960Z,59.14
2023-02-17T03:05:46.729Z,60.32
2023-02-17T03:06:59.717Z,61.63
2023-02-17T03:08:16.514Z,62.67
2023-02-17T03:09:24.709Z,63.77
2023-02-17T03:10:26.794Z,63.17
2023-02-17T03:11:34.636Z,61.67
2023-02-17T03:12:39.412Z,59.82
2023-02-17T03:13:42.374Z,57.90
2023-02-17T03:14:46.910Z,56.54
2023-02-17T03:15:49.978Z,56.63
2023-02-17T03:16:52.911Z,57.45
2023-02-17T03:18:03.523Z,58.52
2023-02-17T03:19:06.885Z,59.77
2023-02-17T03:20:09.566Z,60.78
2023-02-17T03:21:16.394Z,61.72
2023-02-17T03:22:35.060Z,62.68
2023-02-17T03:23:36.871Z,63.87
2023-02-17T03:24:38.569Z,63.47
2023-02-17T03:25:41.645Z,62.05
2023-02-17T03:26:43.456Z,60.57
2023-02-17T03:27:45.231Z,59.09
2023-02-17T03:28:48.406Z,57.33
2023-02-17T03:29:50.358Z,56.79
2023-02-17T03:30:53.077Z,57.28
2023-02-17T03:31:54.952Z,58.16
2023-02-17T03:32:57.077Z,59.17
2023-02-17T03:34:00.639Z,60.15
2023-02-17T03:35:02.782Z,61.09
2023-02-17T03:36:05.154Z,61.96
2023-02-17T03:37:07.065Z,62.83
2023-02-17T03:38:08.788Z,63.74
2023-02-17T03:39:10.582Z,63.51
2023-02-17T03:40:12.493Z,62.38
2023-02-17T03:41:14.382Z,60.95
2023-02-17T03:42:16.106Z,59.50
2023-02-17T03:43:18.229Z,57.91
2023-02-17T03:44:20.365Z,57.01
2023-02-17T03:45:22.163Z,57.32
2023-02-17T03:46:23.859Z,58.17
2023-02-17T03:47:26.097Z,59.22
2023-02-17T03:48:28.070Z,60.27
2023-02-17T03:49:29.897Z,61.19
2023-02-17T03:50:31.716Z,62.03
2023-02-17T03:51:33.471Z,62.87
2023-02-17T03:52:35.325Z,63.77
2023-02-17T03:53:37.109Z,63.55
2023-02-17T03:54:38.874Z,62.37
2023-02-17T03:55:40.672Z,60.94
2023-02-17T03:56:42.492Z,59.51
2023-02-17T03:57:44.228Z,57.86
2023-02-17T03:58:46.136Z,56.90
2023-02-17T03:59:47.906Z,57.18
2023-02-17T04:00:50.123Z,58.02
2023-02-17T04:01:51.844Z,58.99
2023-02-17T04:02:53.609Z,59.96
2023-02-17T04:03:55.553Z,60.90
2023-02-17T04:04:57.759Z,61.77
2023-02-17T04:05:59.969Z,62.59
2023-02-17T04:07:02.081Z,63.53
2023-02-17T04:08:03.854Z,63.65
2023-02-17T04:09:05.607Z,62.67
2023-02-17T04:10:09.386Z,61.29
2023-02-17T04:11:11.553Z,59.82
2023-02-17T04:12:13.260Z,58.26
2023-02-17T04:13:15.012Z,57.00
2023-02-17T04:14:16.749Z,57.07
2023-02-17T04:15:18.639Z,57.87
2023-02-17T04:16:20.509Z,58.80
2023-02-17T04:17:22.207Z,59.72
2023-02-17T04:18:24.357Z,60.66
2023-02-17T04:19:26.149Z,61.56
2023-02-17T04:20:28.312Z,62.38
2023-02-17T04:21:30.241Z,63.33
2023-02-17T04:22:32.341Z,63.72
2023-02-17T04:23:36.072Z,62.94
2023-02-17T04:24:38.164Z,61.55
2023-02-17T04:25:41.070Z,60.12
2023-02-17T04:26:43.181Z,58.59
2023-02-17T04:27:44.959Z,57.16
2023-02-17T04:28:46.654Z,56.98
2023-02-17T04:29:48.552Z,57.63
2023-02-17T04:30:51.606Z,58.52
2023-02-17T04:31:53.555Z,59.51
2023-02-17T04:32:55.353Z,60.44
2023-02-17T04:33:57.393Z,61.35
2023-02-17T04:34:59.312Z,62.16
2023-02-17T04:36:02.016Z,63.01
2023-02-17T04:37:03.914Z,63.78
2023-02-17T04:38:07.426Z,63.44
2023-02-17T04:39:09.121Z,62.21
2023-02-17T04:40:11.633Z,60.77
2023-02-17T04:41:13.452Z,59.38
2023-02-17T04:42:15.253Z,57.74
2023-02-17T04:43:16.989Z,56.87
2023-02-17T04:44:18.843Z,57.17
2023-02-17T04:45:20.701Z,58.00
2023-02-17T04:46:22.473Z,58.96
2023-02-17T04:47:24.299Z,59.92
2023-02-17T04:48:26.608Z,60.85
2023-02-17T04:49:28.684Z,61.75
2023-02-17T04:50:30.552Z,62.56
2023-02-17T04:51:32.303Z,63.47
2023-02-17T04:52:34.037Z,63.63
2023-02-17T04:53:36.092Z,62.71
2023-02-17T04:54:37.889Z,61.30
2023-02-17T04:55:40.811Z,59.84
2023-02-17T04:56:42.532Z,58.28
2023-02-17T04:57:44.375Z,57.05
2023-02-17T04:58:46.229Z,57.04
2023-02-17T04:59:47.981Z,57.73
2023-02-17T05:00:50.808Z,58.67
2023-02-17T05:01:52.554Z,59.66
2023-02-17T05:02:54.307Z,60.56
2023-02-17T05:03:56.074Z,61.42
2023-02-17T05:04:58.076Z,62.22
2023-02-17T05:05:59.923Z,63.10
2023-02-17T05:07:01.796Z,63.78
2023-02-17T05:08:03.902Z,63.27
2023-02-17T05:09:05.842Z,62.03
2023-02-17T05:10:08.080Z,60.57
2023-02-17T05:11:09.793Z,59.13
2023-02-17T05:12:11.601Z,57.49
2023-02-17T05:13:13.438Z,56.86
2023-02-17T05:14:15.233Z,57.28
2023-02-17T05:15:17.046Z,58.12
2023-02-17T05:16:18.804Z,59.07
2023-02-17T05:17:20.724Z,60.07
2023-02-17T05:18:22.444Z,61.00
2023-02-17T05:19:24.400Z,61.83
2023-02-17T05:20:26.156Z,62.59
2023-02-17T05:21:28.388Z,63.51
2023-02-17T05:22:30.150Z,63.61
2023-02-17T05:23:32.063Z,62.69
2023-02-17T05:24:33.831Z,61.33
2023-02-17T05:25:35.562Z,59.93
2023-02-17T05:26:37.386Z,58.41
2023-02-17T05:27:39.126Z,57.04
2023-02-17T05:28:40.879Z,56.92
2023-02-17T05:29:42.910Z,57.61
2023-02-17T05:30:44.652Z,58.56
2023-02-17T05:31:46.487Z,59.52
2023-02-17T05:32:48.332Z,60.37
2023-02-17T05:33:50.482Z,61.14
2023-02-17T05:34:52.206Z,61.91
2023-02-17T05:35:53.981Z,62.71
2023-02-17T05:36:55.693Z,63.59
2023-02-17T05:37:57.433Z,63.54
2023-02-17T05:38:59.365Z,62.51
2023-02-17T05:40:01.191Z,61.11
2023-02-17T05:41:03.995Z,59.67
2023-02-17T05:42:05.874Z,58.05
2023-02-17T05:43:07.594Z,56.93
2023-02-17T05:44:09.364Z,57.02
2023-02-17T05:45:11.404Z,57.75
2023-02-17T05:46:13.606Z,58.69
2023-02-17T05:47:15.466Z,59.65
2023-02-17T05:48:17.340Z,60.54
2023-02-17T05:49:19.184Z,61.36
2023-02-17T05:50:21.119Z,62.11
2023-02-17T05:51:24.193Z,62.94
2023-02-17T05:52:26.161Z,63.68
2023-02-17T05:53:27.955Z,63.37
2023-02-17T05:54:29.933Z,62.14
2023-02-17T05:55:31.950Z,60.60
2023-02-17T05:56:33.709Z,59.01
2023-02-17T05:57:35.568Z,57.24
2023-02-17T05:58:37.392Z,56.52
2023-02-17T05:59:39.096Z,56.91
2023-02-17T06:00:41.264Z,57.75
2023-02-17T06:01:43.024Z,58.68
2023-02-17T06:02:44.859Z,59.60
2023-02-17T06:03:46.660Z,60.47
2023-02-17T06:04:48.544Z,61.32
2023-02-17T06:05:50.984Z,62.09
2023-02-17T06:06:52.751Z,62.91
2023-02-17T06:07:54.493Z,63.70
2023-02-17T06:08:56.250Z,63.37
2023-02-17T06:09:58.638Z,62.13
2023-02-17T06:11:00.663Z,60.58
2023-02-17T06:12:02.390Z,59.06
2023-02-17T06:13:04.173Z,57.34
2023-02-17T06:14:05.933Z,56.62
2023-02-17T06:15:08.084Z,56.99
2023-02-17T06:16:10.202Z,57.86
2023-02-17T06:17:12.030Z,58.77
2023-02-17T06:18:13.983Z,59.67
2023-02-17T06:19:15.800Z,60.55
2023-02-17T06:20:17.646Z,61.37
2023-02-17T06:21:19.614Z,62.16
2023-02-17T06:22:21.631Z,63.00
2023-02-17T06:23:26.898Z,63.74
2023-02-17T06:24:28.991Z,63.25
2023-02-17T06:25:31.780Z,62.04
2023-02-17T06:26:33.632Z,60.49
2023-02-17T06:27:35.588Z,58.97
2023-02-17T06:28:37.368Z,57.30
2023-02-17T06:29:39.183Z,56.77
2023-02-17T06:30:40.913Z,57.27
2023-02-17T06:31:42.843Z,58.16
2023-02-17T06:32:44.717Z,59.11
2023-02-17T06:33:46.709Z,60.09
2023-02-17T06:34:48.446Z,60.97
2023-02-17T06:35:52.166Z,61.79
2023-02-17T06:36:54.202Z,62.61
2023-02-17T06:37:55.964Z,63.54
2023-02-17T06:38:57.674Z,63.62
2023-02-17T06:39:59.781Z,62.68
2023-02-17T06:41:01.512Z,61.25
2023-02-17T06:42:03.590Z,59.75
2023-02-17T06:43:06.606Z,58.14
2023-02-17T06:44:08.871Z,56.92
2023-02-17T06:45:10.688Z,56.98
2023-02-17T06:46:12.479Z,57.79
2023-02-17T06:47:14.434Z,58.75
2023-02-17T06:48:16.296Z,59.70
2023-02-17T06:49:18.174Z,60.56
2023-02-17T06:50:20.017Z,61.45
2023-02-17T06:51:21.859Z,62.30
2023-02-17T06:52:23.610Z,63.20
2023-02-17T06:53:25.561Z,63.71
2023-02-17T06:54:27.533Z,63.10
2023-02-17T06:55:29.479Z,61.80
2023-02-17T06:56:31.291Z,60.40
2023-02-17T06:57:33.083Z,58.95
2023-02-17T06:58:37.090Z,57.37
2023-02-17T06:59:38.837Z,56.96
2023-02-17T07:00:40.552Z,57.52
2023-02-17T07:01:42.333Z,58.42
2023-02-17T07:02:44.228Z,59.41
2023-02-17T07:03:47.229Z,60.37
2023-02-17T07:04:49.152Z,61.29
2023-02-17T07:05:51.410Z,62.17
2023-02-17T07:06:53.228Z,63.15
2023-02-17T07:07:57.881Z,63.87
2023-02-17T07:09:01.459Z,63.43
2023-02-17T07:10:04.608Z,62.22
2023-02-17T07:11:07.195Z,60.83
2023-02-17T07:12:09.063Z,59.52
2023-02-17T07:13:10.945Z,58.10
2023-02-17T07:14:12.693Z,57.35
2023-02-17T07:15:15.041Z,57.78
2023-02-17T07:16:16.943Z,58.77
2023-02-17T07:17:18.812Z,59.83
2023-02-17T07:18:20.573Z,60.89
2023-02-17T07:19:22.552Z,61.89
2023-02-17T07:20:24.305Z,62.92
2023-02-17T07:21:26.022Z,63.91
2023-02-17T07:22:27.806Z,63.81
2023-02-17T07:23:30.247Z,62.83
2023-02-17T07:24:33.970Z,61.48
2023-02-17T07:25:36.051Z,60.08
2023-02-17T07:26:40.119Z,58.76
2023-02-17T07:27:41.870Z,57.41
2023-02-17T07:28:44.538Z,57.30
2023-02-17T07:29:46.293Z,58.06
2023-02-17T07:30:48.035Z,59.08
2023-02-17T07:31:50.186Z,60.13
2023-02-17T07:32:52.267Z,61.15
2023-02-17T07:33:54.131Z,62.12
2023-02-17T07:34:55.953Z,63.09
2023-02-17T07:35:57.870Z,63.95
2023-02-17T07:36:59.845Z,63.63
2023-02-17T07:38:01.742Z,62.50
2023-02-17T07:39:04.168Z,61.10
2023-02-17T07:40:06.759Z,59.83
2023-02-17T07:41:12.536Z,58.46
2023-02-17T07:42:15.025Z,57.37
2023-02-17T07:43:16.826Z,57.61
2023-02-17T07:44:20.026Z,58.52
2023-02-17T07:45:21.947Z,59.67
2023-02-17T07:46:24.703Z,60.89
2023-02-17T07:47:26.524Z,62.08
2023-02-17T07:48:28.384Z,63.35
2023-02-17T07:49:30.260Z,64.35
2023-02-17T07:50:32.317Z,64.07
2023-02-17T07:51:34.275Z,63.08
2023-02-17T07:52:36.099Z,61.83
2023-02-17T07:53:38.975Z,60.65
2023-02-17T07:54:40.933Z,59.56
2023-02-17T07:55:42.705Z,58.31
2023-02-17T07:56:44.642Z,57.66
2023-02-17T07:57:46.371Z,58.18
2023-02-17T07:58:49.146Z,59.17
2023-02-17T07:59:51.303Z,60.42
2023-02-17T08:00:53.068Z,61.56
2023-02-17T08:01:54.936Z,62.75
2023-02-17T08:02:56.675Z,64.04
2023-02-17T08:03:58.706Z,64.33
2023-02-17T08:05:00.644Z,63.52
2023-02-17T08:06:02.784Z,62.32
2023-02-17T08:07:04.654Z,61.07
2023-02-17T08:08:24.847Z,60.00
2023-02-17T08:09:45.329Z,58.59
2023-02-17T08:11:05.912Z,57.73
2023-02-17T08:12:35.148Z,58.54
2023-02-17T08:13:37.394Z,60.09
2023-02-17T08:14:39.253Z,61.25
2023-02-17T08:15:41.543Z,62.30
2023-02-17T08:16:43.556Z,63.57
2023-02-17T08:17:45.487Z,64.20
2023-02-17T08:18:47.204Z,63.54
2023-02-17T08:19:49.635Z,62.36
2023-02-17T08:20:52.329Z,61.10
2023-02-17T08:21:54.350Z,59.87
2023-02-17T08:22:56.172Z,58.63
2023-02-17T08:23:58.054Z,57.57
2023-02-17T08:25:00.160Z,57.79
2023-02-17T08:26:02.201Z,58.77
2023-02-17T08:27:03.979Z,59.98
2023-02-17T08:28:06.420Z,61.16
2023-02-17T08:29:08.878Z,62.32
2023-02-17T08:30:12.226Z,63.68
2023-02-17T08:31:25.213Z,64.39
2023-02-17T08:32:27.371Z,63.46
2023-02-17T08:33:29.166Z,61.96
2023-02-17T08:34:33.993Z,60.49
2023-02-17T08:35:35.827Z,59.08
2023-02-17T08:36:37.776Z,57.67
2023-02-17T08:37:39.579Z,57.44
2023-02-17T08:38:42.244Z,58.26
2023-02-17T08:39:44.061Z,59.47
2023-02-17T08:40:45.873Z,60.83
2023-02-17T08:41:48.720Z,62.17
2023-02-17T08:42:51.246Z,63.57
2023-02-17T08:43:53.079Z,64.41
2023-02-17T08:44:55.065Z,63.87
2023-02-17T08:45:56.819Z,62.66
2023-02-17T08:46:58.944Z,61.45
2023-02-17T08:48:00.747Z,60.44
2023-02-17T08:49:02.767Z,59.60
2023-02-17T08:50:07.840Z,58.62
2023-02-17T08:51:13.950Z,58.09
2023-02-17T08:52:15.794Z,58.78
2023-02-17T08:53:17.567Z,59.92
2023-02-17T08:54:19.809Z,61.18
2023-02-17T08:55:23.524Z,62.47
2023-02-17T08:56:27.488Z,63.93
2023-02-17T08:57:29.687Z,64.47
2023-02-17T08:58:31.908Z,63.89
2023-02-17T08:59:33.739Z,62.84
2023-02-17T09:00:35.537Z,61.65
2023-02-17T09:01:38.839Z,60.61
2023-02-17T09:02:43.589Z,59.72
2023-02-17T09:03:48.240Z,58.66
2023-02-17T09:04:49.978Z,58.01
2023-02-17T09:05:56.227Z,58.50
2023-02-17T09:06:58.731Z,59.68
2023-02-17T09:08:01.024Z,60.96
2023-02-17T09:09:04.199Z,62.30
2023-02-17T09:10:14.180Z,63.79
2023-02-17T09:11:17.323Z,64.58
2023-02-17T09:12:19.069Z,64.02
2023-02-17T09:13:20.976Z,62.88
2023-02-17T09:14:26.084Z,61.69
2023-02-17T09:15:27.958Z,60.61
2023-02-17T09:16:30.147Z,59.77
2023-02-17T09:17:32.190Z,58.85
2023-02-17T09:18:34.193Z,58.14
2023-02-17T09:19:39.287Z,58.53
2023-02-17T09:20:41.165Z,59.62
2023-02-17T09:21:42.923Z,60.94
2023-02-17T09:22:44.759Z,62.24
2023-02-17T09:23:47.393Z,63.66
2023-02-17T09:24:49.210Z,64.51
2023-02-17T09:26:08.672Z,64.14
2023-02-17T09:27:10.780Z,62.81
2023-02-17T09:28:13.987Z,61.68
2023-02-17T09:29:15.772Z,60.62
2023-02-17T09:30:17.798Z,59.80
2023-02-17T09:31:26.370Z,58.97
2023-02-17T09:32:28.395Z,58.19
2023-02-17T09:33:31.453Z,58.65
2023-02-17T09:34:38.391Z,59.85
2023-02-17T09:35:40.483Z,61.34
2023-02-17T09:36:42.992Z,62.71
2023-02-17T09:37:45.603Z,64.13
2023-02-17T09:38:47.789Z,64.54
2023-02-17T09:39:49.549Z,63.97
2023-02-17T09:40:51.763Z,63.03
2023-02-17T09:41:55.461Z,61.99
2023-02-17T09:42:57.244Z,60.99
2023-02-17T09:44:00.065Z,60.20
2023-02-17T09:45:09.614Z,59.43
2023-02-17T09:46:44.852Z,58.49
2023-02-17T09:48:05.587Z,58.98
2023-02-17T09:49:22.702Z,60.51
2023-02-17T09:50:45.979Z,62.25
2023-02-17T09:52:00.037Z,64.18
2023-02-17T09:53:11.970Z,64.60
2023-02-17T09:54:24.316Z,63.75
2023-02-17T09:55:36.284Z,62.57
2023-02-17T09:56:43.140Z,61.41
2023-02-17T09:58:02.531Z,60.54
2023-02-17T09:59:34.333Z,59.71
2023-02-17T10:00:47.934Z,58.58
2023-02-17T10:01:53.932Z,58.75
2023-02-17T10:03:00.604Z,59.92
2023-02-17T10:04:15.026Z,61.43
2023-02-17T10:05:23.400Z,63.32
2023-02-17T10:06:35.993Z,64.69
2023-02-17T10:08:16.519Z,64.65
2023-02-17T10:09:41.797Z,63.21
2023-02-17T10:10:51.821Z,61.84
2023-02-17T10:12:01.822Z,60.83
2023-02-17T10:13:07.819Z,60.00
2023-02-17T10:14:34.915Z,59.28
2023-02-17T10:15:45.154Z,58.44
2023-02-17T10:17:03.443Z,59.17
2023-02-17T10:18:16.247Z,60.87
2023-02-17T10:19:41.157Z,62.68
2023-02-17T10:20:52.498Z,64.59
2023-02-17T10:22:07.712Z,64.68
2023-02-17T10:23:24.009Z,63.74
2023-02-17T10:24:25.895Z,62.60
2023-02-17T10:26:05.278Z,61.79
2023-02-17T10:27:30.267Z,60.57
2023-02-17T10:28:34.789Z,59.82
2023-02-17T10:30:01.915Z,59.27
2023-02-17T10:31:20.332Z,58.63
2023-02-17T10:32:25.867Z,59.69
2023-02-17T10:33:38.645Z,61.18
2023-02-17T10:34:59.263Z,63.11
2023-02-17T10:36:10.725Z,64.88
2023-02-17T10:37:14.459Z,64.78
2023-02-17T10:38:41.935Z,63.86
2023-02-17T10:40:01.934Z,62.29
2023-02-17T10:41:07.026Z,61.25
2023-02-17T10:42:25.159Z,60.59
2023-02-17T10:43:31.509Z,59.82
2023-02-17T10:44:37.955Z,59.31
2023-02-17T10:45:49.501Z,58.64
2023-02-17T10:46:54.122Z,59.09
2023-02-17T10:48:11.857Z,60.46
2023-02-17T10:49:49.970Z,62.42
2023-02-17T10:50:59.304Z,64.68
2023-02-17T10:52:17.260Z,64.64
2023-02-17T10:53:25.423Z,63.63
2023-02-17T10:54:39.337Z,62.59
2023-02-17T10:55:54.554Z,61.63
2023-02-17T10:57:01.302Z,60.81
2023-02-17T10:58:17.932Z,60.22
2023-02-17T10:59:35.737Z,59.63
2023-02-17T11:00:37.680Z,58.97
2023-02-17T11:01:39.445Z,58.84
2023-02-17T11:02:51.810Z,59.71
2023-02-17T11:04:12.271Z,61.36
2023-02-17T11:05:24.797Z,63.54
2023-02-17T11:06:26.841Z,64.90
2023-02-17T11:07:41.956Z,64.78
2023-02-17T11:08:54.256Z,63.78
2023-02-17T11:10:02.585Z,62.67
2023-02-17T11:11:06.046Z,61.75
2023-02-17T11:12:15.566Z,61.10
2023-02-17T11:13:40.767Z,60.46
2023-02-17T11:14:48.817Z,59.85
2023-02-17T11:15:50.903Z,59.52
2023-02-17T11:16:59.599Z,58.99
2023-02-17T11:18:11.314Z,58.83
2023-02-17T11:19:29.328Z,59.98
2023-02-17T11:20:36.036Z,61.80
2023-02-17T11:21:43.771Z,63.58
2023-02-17T11:22:59.709Z,64.91
2023-02-17T11:24:04.769Z,64.74
2023-02-17T11:25:22.855Z,63.82
2023-02-17T11:26:28.265Z,62.65
2023-02-17T11:27:30.128Z,61.79
2023-02-17T11:28:31.965Z,61.07
2023-02-17T11:29:34.262Z,60.47
2023-02-17T11:30:36.670Z,60.00
2023-02-17T11:31:38.708Z,59.61
2023-02-17T11:32:40.548Z,59.12
2023-02-17T11:33:42.270Z,58.73
2023-02-17T11:34:44.596Z,59.37
2023-02-17T11:35:53.835Z,60.67
2023-02-17T11:37:01.361Z,62.38
2023-02-17T11:38:18.420Z,64.21
2023-02-17T11:39:22.368Z,64.93
2023-02-17T11:40:31.319Z,64.39
2023-02-17T11:41:40.981Z,63.38
2023-02-17T11:42:42.755Z,62.37
2023-02-17T11:44:00.619Z,61.61
2023-02-17T11:45:18.641Z,60.81
2023-02-17T11:46:26.410Z,60.16
2023-02-17T11:47:49.064Z,59.73
2023-02-17T11:49:16.119Z,59.23
2023-02-17T11:50:41.249Z,58.94
2023-02-17T11:52:02.385Z,60.32
2023-02-17T11:53:20.920Z,62.24
2023-02-17T11:54:56.892Z,64.34
2023-02-17T11:56:30.199Z,64.86
2023-02-17T11:57:55.814Z,63.75
2023-02-17T11:59:22.229Z,62.54
2023-02-17T12:00:59.675Z,61.47
2023-02-17T12:02:04.792Z,60.62
2023-02-17T12:03:12.656Z,60.14
2023-02-17T12:04:32.052Z,59.71
2023-02-17T12:05:42.567Z,59.39
2023-02-17T12:07:04.194Z,58.92
2023-02-17T12:08:21.514Z,59.58
2023-02-17T12:09:54.266Z,61.32
2023-02-17T12:11:12.102Z,63.84
2023-02-17T12:12:44.186Z,65.17
2023-02-17T12:14:10.849Z,64.59
2023-02-17T12:15:48.112Z,63.31
2023-02-17T12:17:22.414Z,62.07
2023-02-17T12:18:36.271Z,61.17
2023-02-17T12:19:46.754Z,60.58
2023-02-17T12:20:54.413Z,60.13
2023-02-17T12:22:16.598Z,59.79
2023-02-17T12:23:32.184Z,59.52
2023-02-17T12:24:45.970Z,59.17
2023-02-17T12:25:50.429Z,59.05
2023-02-17T12:27:04.401Z,60.04
2023-02-17T12:28:34.129Z,61.84
2023-02-17T12:30:12.673Z,64.29
2023-02-17T12:31:37.197Z,65.06
2023-02-17T12:33:06.913Z,64.15
2023-02-17T12:34:25.517Z,62.86
2023-02-17T12:35:51.041Z,61.92
2023-02-17T12:36:57.475Z,61.17
2023-02-17T12:38:15.068Z,60.66
2023-02-17T12:39:30.642Z,60.19
2023-02-17T12:40:47.988Z,59.81
2023-02-17T12:42:12.516Z,59.50
2023-02-17T12:43:41.713Z,58.99
2023-02-17T12:44:49.558Z,59.56
2023-02-17T12:45:56.804Z,61.05
2023-02-17T12:47:09.364Z,62.78
2023-02-17T12:48:23.408Z,64.62
2023-02-17T12:49:41.004Z,64.93
2023-02-17T12:51:03.372Z,64.05
2023-02-17T12:52:13.370Z,62.91
2023-02-17T12:53:29.002Z,62.02
2023-02-17T12:54:57.407Z,61.29
2023-02-17T12:56:08.431Z,60.56
2023-02-17T12:57:10.435Z,60.11
2023-02-17T12:58:18.631Z,59.75
2023-02-17T12:59:42.941Z,59.50
2023-02-17T13:01:10.838Z,58.95
2023-02-17T13:02:16.178Z,59.60
2023-02-17T13:03:19.138Z,61.03
2023-02-17T13:04:24.974Z,62.66
2023-02-17T13:06:02.852Z,64.42
2023-02-17T13:07:07.632Z,64.95
2023-02-17T13:08:14.329Z,64.29
2023-02-17T13:09:39.877Z,63.35
2023-02-17T13:10:41.780Z,62.19
2023-02-17T13:11:45.583Z,61.51
2023-02-17T13:13:10.164Z,60.99
2023-02-17T13:14:38.811Z,60.39
2023-02-17T13:15:44.736Z,59.86
2023-02-17T13:16:47.536Z,59.57
2023-02-17T13:18:02.425Z,59.32
2023-02-17T13:19:08.499Z,58.89
2023-02-17T13:20:10.234Z,59.56
2023-02-17T13:21:28.723Z,60.89
2023-02-17T13:22:30.691Z,62.94
2023-02-17T13:23:42.166Z,64.53
2023-02-17T13:24:55.537Z,65.00
2023-02-17T13:26:16.783Z,64.29
2023-02-17T13:27:31.205Z,63.22
2023-02-17T13:28:37.076Z,62.27
2023-02-17T13:29:39.507Z,61.56
2023-02-17T13:30:45.196Z,61.04
2023-02-17T13:31:54.697Z,60.55
2023-02-17T13:33:05.115Z,60.10
2023-02-17T13:34:09.365Z,59.76
2023-02-17T13:35:14.096Z,59.49
2023-02-17T13:36:22.473Z,59.10
2023-02-17T13:37:39.285Z,58.95
2023-02-17T13:39:01.674Z,60.18
2023-02-17T13:40:24.488Z,62.24
2023-02-17T13:41:27.907Z,64.43
2023-02-17T13:42:36.758Z,64.99
2023-02-17T13:43:43.019Z,64.45
2023-02-17T13:44:46.746Z,63.58
2023-02-17T13:46:00.961Z,62.69
2023-02-17T13:47:11.711Z,61.81
2023-02-17T13:48:22.244Z,61.16
2023-02-17T13:49:27.790Z,60.58
2023-02-17T13:50:38.982Z,60.13
2023-02-17T13:51:40.958Z,59.78
2023-02-17T13:52:43.650Z,59.49
2023-02-17T13:53:50.424Z,59.12
2023-02-17T13:54:53.468Z,58.96
2023-02-17T13:56:03.258Z,59.83
2023-02-17T13:57:05.285Z,61.41
2023-02-17T13:58:10.319Z,63.03
2023-02-17T13:59:20.460Z,64.66
2023-02-17T14:00:26.926Z,65.00
2023-02-17T14:01:28.876Z,64.31
2023-02-17T14:02:36.343Z,63.43
2023-02-17T14:03:55.278Z,62.49
2023-02-17T14:04:57.634Z,61.57
2023-02-17T14:06:02.502Z,60.91
2023-02-17T14:07:05.636Z,60.39
2023-02-17T14:08:34.889Z,60.02
2023-02-17T14:09:37.007Z,59.58
2023-02-17T14:10:39.387Z,59.17
2023-02-17T14:11:41.765Z,58.82
2023-02-17T14:12:43.735Z,59.43
2023-02-17T14:13:51.304Z,60.77
2023-02-17T14:14:53.240Z,62.47
2023-02-17T14:15:58.877Z,64.11
2023-02-17T14:17:04.553Z,64.98
2023-02-17T14:18:26.955Z,64.68
2023-02-17T14:19:41.092Z,63.63
2023-02-17T14:20:43.152Z,62.69
2023-02-17T14:22:00.313Z,62.09